Time;durP1;ratioP1;P1;durP2;ratioP2;P2;SDS_P1;SDS_P2;PMS_P1;PMS_P2;Temp;Humidity;BMP_temperature;BMP_pressure;BME280_temperature;BME280_humidity;BME280_pressure;Samples;Min_cycle;Max_cycle;Signal;HPM_P1;HPM_P2
2021/05/23 00:00:36;;;;;;;0.30;0.20;;;;;;;7.59;85.53;98948.97;2033114;76;20313;-74
2021/05/23 00:03:39;;;;;;;1.01;0.38;;;;;;;7.55;85.35;98949.84;2037937;79;20386;-74
2021/05/23 00:06:42;;;;;;;2.09;0.30;;;;;;;7.49;85.19;98960.16;2038361;79;20348;-74
2021/05/23 00:09:44;;;;;;;0.55;0.21;;;;;;;7.44;85.35;98965.31;2037746;79;20809;-74
2021/05/23 00:12:47;;;;;;;0.30;0.30;;;;;;;7.40;85.33;98966.19;2039828;79;20326;-73
2021/05/23 00:15:56;;;;;;;0.20;0.20;;;;;;;7.34;85.16;98965.31;2036472;76;22782;-74
2021/05/23 00:18:59;;;;;;;1.60;0.80;;;;;;;7.26;85.12;98961.00;2037897;79;20420;-74
2021/05/23 00:22:04;;;;;;;1.23;0.24;;;;;;;7.21;85.15;98965.28;2038291;79;20379;-74
2021/05/23 00:25:07;;;;;;;0.91;0.26;;;;;;;7.16;85.35;98961.81;2037987;79;20728;-74
2021/05/23 00:28:11;;;;;;;0.69;0.20;;;;;;;7.11;85.32;98960.97;2037913;79;20384;-74
2021/05/23 00:31:13;;;;;;;0.41;0.30;;;;;;;7.06;85.49;98960.09;2035718;79;25239;-74
2021/05/23 00:34:17;;;;;;;0.85;0.26;;;;;;;7.06;85.46;98959.22;2037841;79;20369;-74
2021/05/23 00:37:19;;;;;;;1.13;0.79;;;;;;;7.05;86.02;98960.97;2037628;79;20504;-74
2021/05/23 00:40:22;;;;;;;0.40;0.30;;;;;;;7.05;86.97;98953.22;2037877;79;20332;-74
2021/05/23 00:43:25;;;;;;;1.52;0.32;;;;;;;7.06;87.10;98961.81;2038184;79;20317;-73
2021/05/23 00:46:28;;;;;;;1.52;0.21;;;;;;;7.05;86.74;98960.09;2036613;79;32844;-74
2021/05/23 00:49:30;;;;;;;0.70;0.30;;;;;;;7.04;86.49;98966.13;2041123;79;20326;-74
2021/05/23 00:52:33;;;;;;;1.11;0.20;;;;;;;6.97;86.12;98962.63;2037770;79;20344;-73
2021/05/23 00:55:37;;;;;;;0.76;0.20;;;;;;;6.91;85.90;98958.31;2037527;79;20360;-74
2021/05/23 00:58:39;;;;;;;0.90;0.20;;;;;;;6.88;85.78;98965.19;2037324;79;20357;-74
2021/05/23 01:02:05;;;;;;;0.52;0.24;;;;;;;6.82;85.69;98968.63;2036434;77;20357;-74
2021/05/23 01:05:11;;;;;;;0.52;0.20;;;;;;;6.76;85.64;98966.00;2037480;79;20354;-74
2021/05/23 01:08:15;;;;;;;0.32;0.22;;;;;;;6.73;85.72;98971.16;2037487;79;20876;-74
2021/05/23 01:11:17;;;;;;;0.30;0.20;;;;;;;6.70;85.81;98980.59;2037085;79;20839;-74
2021/05/23 01:14:41;;;;;;;0.80;0.20;;;;;;;6.66;85.87;98984.91;2037009;79;20325;-74
2021/05/23 01:17:46;;;;;;;0.30;0.20;;;;;;;6.60;85.67;98984.84;2036909;77;20807;-74
2021/05/23 01:20:52;;;;;;;0.30;0.25;;;;;;;6.55;85.68;98990.00;2038224;79;20693;-74
2021/05/23 01:24:00;;;;;;;1.31;0.20;;;;;;;6.50;85.62;98985.69;2038968;79;20840;-74
2021/05/23 01:27:06;;;;;;;0.20;0.20;;;;;;;6.43;85.60;98991.63;2038634;79;20985;-74
2021/05/23 01:30:13;;;;;;;1.50;0.30;;;;;;;6.37;85.63;98987.31;2037874;79;20317;-74
2021/05/23 01:33:20;;;;;;;0.20;0.20;;;;;;;6.34;85.70;98997.63;2038410;77;47095;-74
2021/05/23 01:36:26;;;;;;;1.16;0.31;;;;;;;6.30;85.76;99001.03;2038472;79;20328;-74
2021/05/23 01:39:29;;;;;;;0.54;0.20;;;;;;;6.28;85.84;99002.72;2038798;79;20301;-74
2021/05/23 01:42:33;;;;;;;0.59;0.29;;;;;;;6.31;86.29;99002.75;2037669;79;20308;-74
2021/05/23 01:45:37;;;;;;;1.23;0.31;;;;;;;6.36;86.24;99011.38;2037318;79;21807;-74
2021/05/23 01:48:40;;;;;;;0.65;0.21;;;;;;;6.34;86.28;99013.94;2038691;79;20301;-73
2021/05/23 01:51:43;;;;;;;0.50;0.30;;;;;;;6.36;86.57;99017.41;2038653;79;20349;-74
2021/05/23 01:54:46;;;;;;;1.15;0.30;;;;;;;6.38;86.46;99019.13;2038199;79;20853;-74
2021/05/23 01:57:49;;;;;;;1.63;0.30;;;;;;;6.38;86.29;99017.41;2038272;79;20322;-74
2021/05/23 02:00:53;;;;;;;0.49;0.30;;;;;;;6.36;86.09;99014.81;2037468;77;20342;-75
2021/05/23 02:03:59;;;;;;;1.10;0.20;;;;;;;6.33;85.93;99029.41;2040529;79;20330;-74
2021/05/23 02:07:02;;;;;;;0.80;0.26;;;;;;;6.31;86.04;99018.22;2039369;79;20312;-74
2021/05/23 02:10:10;;;;;;;0.99;0.26;;;;;;;6.33;86.67;99019.97;2039890;79;20312;-74
2021/05/23 02:13:14;;;;;;;0.26;0.24;;;;;;;6.32;86.69;99022.53;2039335;79;20305;-74
2021/05/23 02:16:17;;;;;;;0.25;0.25;;;;;;;6.33;86.93;99025.13;2038438;77;21236;-74
2021/05/23 02:19:22;;;;;;;1.71;0.40;;;;;;;6.35;86.93;99027.69;2039420;79;20297;-74
2021/05/23 02:22:24;;;;;;;0.90;0.38;;;;;;;6.35;86.86;99028.56;2039913;79;20704;-74
2021/05/23 02:25:29;;;;;;;0.65;0.20;;;;;;;6.37;86.78;99031.16;2039480;79;20337;-74
2021/05/23 02:28:32;;;;;;;0.35;0.20;;;;;;;6.34;86.61;99036.28;2039356;79;20309;-74
2021/05/23 02:31:35;;;;;;;0.94;0.40;;;;;;;6.28;86.42;99038.81;2040551;76;21938;-74
2021/05/23 02:34:49;;;;;;;1.60;0.30;;;;;;;6.21;86.27;99048.22;2035085;79;20326;-74
2021/05/23 02:37:53;;;;;;;0.91;0.22;;;;;;;6.16;86.18;99042.19;2040100;79;21137;-73
2021/05/23 02:40:56;;;;;;;0.24;0.24;;;;;;;6.13;86.11;99051.59;2039526;79;21140;-74
2021/05/23 02:43:59;;;;;;;1.52;0.21;;;;;;;6.11;86.13;99048.16;2039468;79;20356;-74
2021/05/23 02:47:02;;;;;;;0.32;0.20;;;;;;;6.06;86.17;99042.94;2038800;76;20317;-74
2021/05/23 02:50:07;;;;;;;0.43;0.26;;;;;;;6.03;86.03;99043.78;2043188;79;20379;-73
2021/05/23 02:53:11;;;;;;;0.66;0.26;;;;;;;6.01;85.90;99042.06;2039258;79;20379;-74
2021/05/23 02:56:14;;;;;;;1.09;0.26;;;;;;;5.96;85.73;99054.03;2038891;79;20325;-75
2021/05/23 02:59:16;;;;;;;0.30;0.20;;;;;;;5.91;85.75;99059.13;2039956;79;20344;-74
2021/05/23 03:02:19;;;;;;;1.21;0.26;;;;;;;5.88;85.75;99061.66;2037916;76;21852;-73
2021/05/23 03:05:23;;;;;;;1.01;0.20;;;;;;;5.83;85.56;99067.63;2041999;79;20342;-73
2021/05/23 03:08:25;;;;;;;0.51;0.20;;;;;;;5.81;85.67;99077.91;2038542;79;20328;-74
2021/05/23 03:11:28;;;;;;;0.70;0.29;;;;;;;5.77;85.70;99076.16;2037728;79;20792;-73
2021/05/23 03:14:30;;;;;;;0.86;0.30;;;;;;;5.75;85.85;99077.88;2038114;79;20379;-73
2021/05/23 03:17:33;;;;;;;0.57;0.29;;;;;;;5.71;85.79;99083.81;2037423;76;20857;-74
2021/05/23 03:20:38;;;;;;;1.29;0.20;;;;;;;5.66;85.55;99077.75;2038568;79;20805;-75
2021/05/23 03:23:41;;;;;;;0.90;0.30;;;;;;;5.63;85.56;99080.31;2037980;79;20709;-74
2021/05/23 03:26:43;;;;;;;0.76;0.20;;;;;;;5.59;85.41;99078.56;2037750;79;21134;-74
2021/05/23 03:29:46;;;;;;;0.26;0.22;;;;;;;5.56;85.43;99086.22;2037641;79;20332;-73
2021/05/23 03:32:48;;;;;;;1.17;0.20;;;;;;;5.55;85.44;99084.50;2037382;77;23144;-73
2021/05/23 03:35:51;;;;;;;1.75;0.32;;;;;;;5.55;85.50;99097.38;2038489;79;20313;-74
2021/05/23 03:38:53;;;;;;;0.47;0.30;;;;;;;5.55;85.75;99107.69;2037890;79;20304;-74
2021/05/23 03:41:56;;;;;;;2.74;0.30;;;;;;;5.54;85.87;99101.66;2037851;79;20316;-74
2021/05/23 03:44:59;;;;;;;0.30;0.20;;;;;;;5.52;85.78;99112.81;2037850;79;21034;-74
2021/05/23 03:48:02;;;;;;;0.88;0.20;;;;;;;5.50;85.74;99115.38;2037570;76;20324;-74
2021/05/23 03:51:05;;;;;;;2.79;0.40;;;;;;;5.50;85.93;99114.50;2037494;79;20314;-74
2021/05/23 03:54:07;;;;;;;0.24;0.24;;;;;;;5.52;86.07;99128.25;2037603;79;20852;-75
2021/05/23 03:57:10;;;;;;;0.28;0.20;;;;;;;5.56;86.65;99136.03;2038049;79;20347;-74
2021/05/23 04:00:15;;;;;;;0.20;0.20;;;;;;;5.62;87.33;99136.13;2036525;79;20334;-74
2021/05/23 04:03:21;;;;;;;0.94;0.30;;;;;;;5.68;87.45;99135.31;2037666;76;25138;-75
2021/05/23 04:06:24;;;;;;;0.49;0.22;;;;;;;5.71;87.39;99137.91;2037225;79;20554;-74
2021/05/23 04:09:26;;;;;;;0.51;0.26;;;;;;;5.73;87.23;99143.94;2038097;79;20873;-75
2021/05/23 04:12:33;;;;;;;0.89;0.20;;;;;;;5.74;87.13;99150.81;2038218;79;20330;-74
2021/05/23 04:15:36;;;;;;;0.93;0.30;;;;;;;5.75;87.08;99158.59;2037310;77;21503;-75
2021/05/23 04:18:38;;;;;;;1.00;0.30;;;;;;;5.76;87.18;99168.06;2038399;79;20326;-75
2021/05/23 04:21:41;;;;;;;0.30;0.29;;;;;;;5.84;87.33;99170.69;2037282;79;20301;-75
2021/05/23 04:24:43;;;;;;;1.65;0.30;;;;;;;5.92;87.95;99174.25;2037664;79;20690;-75
2021/05/23 04:27:49;;;;;;;1.67;0.30;;;;;;;6.01;88.45;99181.22;2038119;79;21094;-75
2021/05/23 04:30:52;;;;;;;0.21;0.20;;;;;;;6.09;88.74;99189.00;2036796;76;21410;-75
2021/05/23 04:33:54;;;;;;;0.39;0.20;;;;;;;6.19;89.05;99175.38;2035426;79;20378;-75
2021/05/23 04:36:57;;;;;;;0.89;0.24;;;;;;;6.32;89.27;99195.28;2037019;79;20324;-75
2021/05/23 04:40:00;;;;;;;0.38;0.20;;;;;;;6.44;89.41;99200.53;2038211;79;20400;-75
2021/05/23 04:43:04;;;;;;;2.01;0.64;;;;;;;6.55;89.40;99204.06;2038089;79;20422;-75
2021/05/23 04:46:08;;;;;;;1.58;0.20;;;;;;;6.68;89.50;99210.22;2036628;77;23834;-75
2021/05/23 04:49:10;;;;;;;1.02;0.41;;;;;;;6.79;89.73;99210.28;2037970;79;20336;-75
2021/05/23 04:52:14;;;;;;;0.43;0.28;;;;;;;6.91;89.87;99216.41;2037889;79;20310;-75
2021/05/23 04:55:17;;;;;;;0.22;0.22;;;;;;;7.07;90.15;99216.53;2038607;79;20351;-75
2021/05/23 04:58:20;;;;;;;1.52;0.32;;;;;;;7.22;90.32;99224.38;2038327;79;20313;-75
2021/05/23 05:01:22;;;;;;;1.99;0.20;;;;;;;7.35;90.41;99223.56;2037698;76;20738;-74
2021/05/23 05:04:25;;;;;;;1.73;0.38;;;;;;;7.47;90.30;99233.09;2038240;79;20731;-74
2021/05/23 05:07:28;;;;;;;1.05;0.30;;;;;;;7.56;90.31;99234.03;2038633;79;20308;-75
2021/05/23 05:10:31;;;;;;;2.14;0.40;;;;;;;7.66;90.20;99237.50;2041541;79;20340;-75
2021/05/23 05:13:34;;;;;;;0.74;0.34;;;;;;;7.73;90.04;99239.28;2037715;79;20334;-74
2021/05/23 05:16:37;;;;;;;1.38;0.44;;;;;;;7.80;89.79;99242.75;2037276;77;22767;-75
2021/05/23 05:19:40;;;;;;;2.11;0.35;;;;;;;7.85;89.63;99238.47;2038383;79;20998;-74
2021/05/23 05:22:43;;;;;;;0.96;0.39;;;;;;;7.93;89.51;99246.25;2038035;79;20296;-75
2021/05/23 05:25:46;;;;;;;0.74;0.29;;;;;;;7.98;89.28;99247.13;2037539;79;20428;-75
2021/05/23 05:28:49;;;;;;;1.23;0.28;;;;;;;8.03;89.23;99245.41;2038888;79;21301;-75
2021/05/23 05:31:51;;;;;;;1.00;0.38;;;;;;;8.10;89.38;99240.28;2037836;77;21039;-75
2021/05/23 05:34:54;;;;;;;1.26;0.41;;;;;;;8.25;89.56;99246.34;2038004;79;20177;-75
2021/05/23 05:37:56;;;;;;;0.52;0.31;;;;;;;8.36;89.48;99249.84;2038082;79;20348;-74
2021/05/23 05:40:59;;;;;;;1.70;0.35;;;;;;;8.42;89.22;99249.84;2038277;79;20336;-76
2021/05/23 05:44:03;;;;;;;1.41;0.40;;;;;;;8.47;88.97;99256.78;2039309;79;20185;-76
2021/05/23 05:47:05;;;;;;;0.76;0.40;;;;;;;8.52;88.71;99250.75;2037381;76;20349;-74
2021/05/23 05:50:09;;;;;;;0.96;0.30;;;;;;;8.57;88.61;99254.19;2038515;79;20234;-74
2021/05/23 05:53:12;;;;;;;0.57;0.36;;;;;;;8.61;88.43;99267.13;2038902;79;20313;-74
2021/05/23 05:56:14;;;;;;;1.52;0.30;;;;;;;8.62;88.19;99265.44;2038220;79;20311;-74
2021/05/23 05:59:17;;;;;;;2.99;0.36;;;;;;;8.66;87.97;99264.59;2038446;79;20174;-73
2021/05/23 06:02:19;;;;;;;1.73;0.30;;;;;;;8.70;87.67;99274.06;2036360;77;25060;-74
2021/05/23 06:05:22;;;;;;;1.05;0.40;;;;;;;8.72;87.51;99277.53;2036371;79;20193;-74
2021/05/23 06:08:25;;;;;;;4.04;0.94;;;;;;;8.74;87.49;99273.22;2036289;79;20197;-74
2021/05/23 06:11:27;;;;;;;0.81;0.59;;;;;;;8.78;87.66;99274.94;2037709;79;20694;-74
2021/05/23 06:14:30;;;;;;;1.99;0.40;;;;;;;8.86;88.01;99287.91;2038148;79;20209;-74
2021/05/23 06:17:33;;;;;;;2.21;0.34;;;;;;;8.93;88.19;99279.25;2037404;77;36779;-73
2021/05/23 06:20:36;;;;;;;3.09;0.44;;;;;;;9.01;88.24;99290.50;2037641;79;20193;-75
2021/05/23 06:23:39;;;;;;;2.08;0.30;;;;;;;9.00;87.96;99293.94;2041573;79;20133;-83
2021/05/23 06:26:42;;;;;;;0.65;0.30;;;;;;;9.00;87.68;99293.94;2046853;79;20536;-83
2021/05/23 06:29:45;;;;;;;2.65;0.50;;;;;;;8.97;87.57;99296.50;2049086;79;20877;-81
2021/05/23 06:32:48;;;;;;;1.34;0.40;;;;;;;9.01;87.49;99296.53;2040678;76;21668;-78
2021/05/23 06:35:50;;;;;;;2.63;0.50;;;;;;;9.06;87.41;99305.16;2038702;79;20246;-78
2021/05/23 06:38:53;;;;;;;1.05;0.40;;;;;;;9.11;87.39;99302.56;2038180;79;20169;-77
2021/05/23 06:41:56;;;;;;;2.19;0.36;;;;;;;9.17;87.65;99302.59;2038572;79;20199;-77
2021/05/23 06:44:58;;;;;;;0.77;0.25;;;;;;;9.26;87.76;99312.94;2038517;79;20173;-72
2021/05/23 06:48:01;;;;;;;1.61;0.52;;;;;;;9.33;87.49;99309.47;2037490;76;20189;-76
2021/05/23 06:51:04;;;;;;;2.17;0.35;;;;;;;9.47;87.54;99304.28;2041969;79;20190;-77
2021/05/23 06:54:07;;;;;;;0.98;0.30;;;;;;;9.54;87.14;99305.16;2039324;79;20189;-77
2021/05/23 06:57:09;;;;;;;0.88;0.24;;;;;;;9.59;87.21;99308.59;2038411;79;20176;-76
2021/05/23 07:00:13;;;;;;;2.13;0.30;;;;;;;9.61;86.97;99318.06;2037996;79;20570;-77
2021/05/23 07:03:15;;;;;;;1.71;0.40;;;;;;;9.68;87.08;99317.19;2037419;76;21467;-76
2021/05/23 07:06:18;;;;;;;2.78;0.39;;;;;;;9.74;87.07;99318.91;2038039;79;20177;-76
2021/05/23 07:09:21;;;;;;;1.70;0.40;;;;;;;9.88;87.27;99317.16;2037894;79;20224;-76
2021/05/23 07:12:23;;;;;;;0.49;0.31;;;;;;;10.02;86.76;99321.41;2038858;79;20165;-75
2021/05/23 07:15:26;;;;;;;0.85;0.30;;;;;;;10.24;86.35;99315.34;2036536;77;24201;-75
2021/05/23 07:18:28;;;;;;;1.85;0.34;;;;;;;10.67;86.26;99320.31;2037943;79;21082;-76
2021/05/23 07:21:31;;;;;;;0.99;0.50;;;;;;;10.90;84.79;99321.00;2037779;79;20270;-73
2021/05/23 07:24:34;;;;;;;4.44;0.35;;;;;;;10.90;82.56;99321.00;2038224;79;20194;-73
2021/05/23 07:27:37;;;;;;;1.46;0.43;;;;;;;11.03;82.32;99314.84;2038032;79;20165;-76
2021/05/23 07:30:40;;;;;;;3.30;0.40;;;;;;;11.20;82.15;99322.53;2036657;77;20263;-73
2021/05/23 07:33:43;;;;;;;2.24;0.45;;;;;;;11.30;81.33;99325.91;2037724;79;20165;-74
2021/05/23 07:36:46;;;;;;;0.95;0.38;;;;;;;11.40;81.26;99320.63;2037795;79;20165;-73
2021/05/23 07:39:51;;;;;;;2.11;0.30;;;;;;;11.43;80.50;99325.78;2037984;79;20196;-73
2021/05/23 07:42:54;;;;;;;2.17;0.57;;;;;;;11.48;79.14;99328.34;2037697;79;20242;-73
2021/05/23 07:45:57;;;;;;;1.17;0.30;;;;;;;11.51;79.11;99323.13;2036999;76;20187;-73
2021/05/23 07:48:59;;;;;;;1.48;0.40;;;;;;;11.57;78.25;99330.88;2038756;79;20210;-73
2021/05/23 07:52:02;;;;;;;3.96;0.50;;;;;;;11.58;78.37;99327.38;2038110;79;20189;-72
2021/05/23 07:55:06;;;;;;;5.60;0.50;;;;;;;11.67;78.17;99332.50;2040981;79;20242;-73
2021/05/23 07:58:09;;;;;;;1.13;0.30;;;;;;;11.78;77.57;99341.09;2038013;79;20676;-71
2021/05/23 08:01:13;;;;;;;2.22;0.41;;;;;;;11.65;75.92;99346.38;2036356;79;42918;-71
2021/05/23 08:04:16;;;;;;;4.69;0.50;;;;;;;11.68;76.60;99344.63;2038752;79;20165;-71
2021/05/23 08:07:19;;;;;;;3.14;0.49;;;;;;;11.78;76.86;99343.69;2037407;79;20234;-71
2021/05/23 08:10:21;;;;;;;2.85;0.41;;;;;;;11.88;76.12;99360.06;2038067;79;20216;-71
2021/05/23 08:13:24;;;;;;;1.88;0.60;;;;;;;11.93;75.83;99353.06;2038106;79;20246;-72
2021/05/23 08:16:27;;;;;;;1.95;0.50;;;;;;;12.20;75.72;99351.03;2037171;77;22000;-71
2021/05/23 08:19:30;;;;;;;2.84;0.47;;;;;;;12.57;75.41;99349.72;2037283;79;20172;-71
2021/05/23 08:22:33;;;;;;;3.41;0.40;;;;;;;12.83;74.21;99364.13;2037493;79;20641;-71
2021/05/23 08:25:35;;;;;;;1.39;0.36;;;;;;;12.91;71.26;99368.34;2037269;79;20181;-71
2021/05/23 08:28:38;;;;;;;4.03;0.50;;;;;;;12.88;70.71;99362.31;2037798;79;20169;-71
2021/05/23 08:31:41;;;;;;;1.42;0.47;;;;;;;12.97;69.86;99357.84;2035438;77;20557;-71
2021/05/23 08:34:43;;;;;;;2.38;0.30;;;;;;;13.23;69.69;99354.84;2037093;79;20229;-71
2021/05/23 08:37:46;;;;;;;2.40;0.30;;;;;;;13.46;69.04;99369.28;2039677;79;20191;-71
2021/05/23 08:40:49;;;;;;;1.86;0.38;;;;;;;13.47;67.98;99356.22;2037579;79;20230;-71
2021/05/23 08:43:54;;;;;;;2.31;0.40;;;;;;;13.24;67.07;99363.53;2037951;79;20673;-71
2021/05/23 08:46:57;;;;;;;4.29;0.50;;;;;;;13.10;67.49;99361.09;2036214;76;21336;-71
2021/05/23 08:50:00;;;;;;;2.96;0.40;;;;;;;13.00;68.28;99364.75;2037610;79;20207;-71
2021/05/23 08:53:05;;;;;;;1.14;0.30;;;;;;;13.16;69.24;99363.66;2037706;79;20201;-72
2021/05/23 08:56:07;;;;;;;1.64;0.35;;;;;;;13.44;69.64;99361.47;2035242;79;20191;-71
2021/05/23 08:59:11;;;;;;;1.46;0.40;;;;;;;13.46;68.40;99366.66;2035676;79;20601;-72
2021/05/23 09:02:13;;;;;;;1.58;0.44;;;;;;;13.51;64.62;99368.34;2036751;76;21145;-72
2021/05/23 09:05:38;;;;;;;2.63;0.50;;;;;;;14.09;65.73;99364.66;2037845;79;20650;-72
2021/05/23 09:08:40;;;;;;;2.05;0.30;;;;;;;14.69;65.20;99360.88;2037580;79;20197;-73
2021/05/23 09:11:52;;;;;;;2.81;0.40;;;;;;;14.80;63.52;99364.13;2037296;79;20169;-72
2021/05/23 09:14:54;;;;;;;2.03;0.60;;;;;;;14.26;59.61;99371.31;2037430;79;20539;-72
2021/05/23 09:18:12;;;;;;;1.79;0.29;;;;;;;13.98;62.63;99381.41;2036713;77;21821;-72
2021/05/23 09:21:20;;;;;;;1.00;0.40;;;;;;;13.70;63.88;99376.72;2037783;79;20597;-72
2021/05/23 09:24:22;;;;;;;1.34;0.30;;;;;;;13.49;63.76;99384.91;2036982;79;20277;-71
2021/05/23 09:27:28;;;;;;;1.65;0.30;;;;;;;13.34;64.40;99385.13;2037255;79;20218;-72
2021/05/23 09:30:33;;;;;;;1.14;0.40;;;;;;;13.26;65.68;99380.03;2036414;79;20165;-71
2021/05/23 09:33:41;;;;;;;1.27;0.30;;;;;;;13.23;66.13;99380.94;2037254;79;20169;-72
2021/05/23 09:36:45;;;;;;;1.69;0.35;;;;;;;13.43;67.20;99383.22;2036928;79;20546;-71
2021/05/23 09:39:47;;;;;;;2.13;0.30;;;;;;;13.76;65.57;99375.72;2038397;79;20177;-71
2021/05/23 09:42:52;;;;;;;1.51;0.30;;;;;;;13.92;61.14;99382.41;2037779;79;20906;-71
2021/05/23 09:45:55;;;;;;;0.71;0.40;;;;;;;13.98;62.40;99374.44;2036810;79;21569;-71
2021/05/23 09:48:57;;;;;;;1.89;0.30;;;;;;;14.12;61.87;99380.28;2039340;79;20587;-71
2021/05/23 09:52:02;;;;;;;3.90;0.30;;;;;;;14.41;61.00;99384.09;2038038;79;20181;-72
2021/05/23 09:55:06;;;;;;;0.84;0.35;;;;;;;14.57;60.51;99385.53;2038818;79;20638;-72
2021/05/23 09:58:19;;;;;;;1.20;0.40;;;;;;;15.06;61.16;99382.69;2038250;79;20194;-72
2021/05/23 10:01:28;;;;;;;2.71;0.57;;;;;;;15.82;59.36;99393.13;2037459;77;20554;-73
2021/05/23 10:04:31;;;;;;;2.15;0.45;;;;;;;16.11;56.81;99384.47;2038354;79;20185;-72
2021/05/23 10:07:34;;;;;;;1.58;0.30;;;;;;;16.55;56.26;99398.13;2038126;79;20173;-71
2021/05/23 10:10:42;;;;;;;1.67;0.20;;;;;;;16.41;53.23;99398.50;2038599;79;20169;-71
2021/05/23 10:13:44;;;;;;;0.75;0.20;;;;;;;16.12;54.95;99391.44;2038435;79;20223;-71
2021/05/23 10:16:51;;;;;;;0.40;0.14;;;;;;;15.73;55.66;99405.56;2037138;77;20177;-71
2021/05/23 10:19:55;;;;;;;1.63;0.20;;;;;;;15.23;56.32;99408.47;2039144;79;20196;-72
2021/05/23 10:23:00;;;;;;;1.11;0.20;;;;;;;14.84;57.09;99398.91;2038691;79;21006;-71
2021/05/23 10:26:10;;;;;;;0.49;0.20;;;;;;;14.72;57.78;99405.22;2038106;79;20215;-71
2021/05/23 10:29:13;;;;;;;0.93;0.20;;;;;;;15.05;57.89;99401.03;2038145;79;20282;-71
2021/05/23 10:32:22;;;;;;;2.67;0.29;;;;;;;15.55;56.02;99392.00;2036919;76;20759;-70
2021/05/23 10:35:32;;;;;;;1.86;0.21;;;;;;;16.35;55.67;99398.69;2038775;79;20196;-70
2021/05/23 10:38:35;;;;;;;2.11;0.20;;;;;;;16.75;51.70;99390.56;2038454;79;20200;-71
2021/05/23 10:41:38;;;;;;;0.50;0.20;;;;;;;16.52;51.12;99399.06;2036344;79;20177;-71
2021/05/23 10:44:59;;;;;;;3.45;0.30;;;;;;;16.17;50.81;99405.28;2038058;79;20276;-71
2021/05/23 10:48:16;;;;;;;0.80;0.20;;;;;;;15.96;49.45;99417.16;2032161;77;20427;-71
2021/05/23 10:51:19;;;;;;;2.40;0.30;;;;;;;16.28;49.40;99408.47;2033152;79;20158;-71
2021/05/23 10:54:23;;;;;;;1.39;0.20;;;;;;;16.87;47.21;99403.31;2032592;79;20173;-71
2021/05/23 10:57:25;;;;;;;1.58;0.20;;;;;;;17.42;49.17;99390.28;2033204;79;20193;-71
2021/05/23 11:00:32;;;;;;;0.90;0.25;;;;;;;17.58;44.10;99395.84;2033287;77;21525;-71
2021/05/23 11:03:35;;;;;;;1.50;0.30;;;;;;;17.48;45.71;99392.69;2038247;79;20201;-71
2021/05/23 11:06:39;;;;;;;1.63;0.20;;;;;;;17.08;46.66;99399.19;2037538;79;20157;-73
2021/05/23 11:09:43;;;;;;;1.54;0.50;;;;;;;16.51;45.68;99393.84;2037399;79;20198;-71
2021/05/23 11:12:50;;;;;;;0.94;0.39;;;;;;;15.98;48.19;99409.31;2037165;79;20213;-72
2021/05/23 11:15:53;;;;;;;1.08;0.30;;;;;;;15.73;49.24;99403.81;2035927;77;21080;-71
2021/05/23 11:19:03;;;;;;;1.38;0.30;;;;;;;15.68;49.68;99401.31;2037405;79;20189;-71
2021/05/23 11:22:06;;;;;;;1.06;0.20;;;;;;;16.05;49.72;99405.59;2037441;79;20220;-71
2021/05/23 11:25:09;;;;;;;3.06;0.29;;;;;;;16.45;48.19;99405.38;2037249;79;20197;-71
2021/05/23 11:28:13;;;;;;;4.19;0.35;;;;;;;16.83;47.60;99403.44;2037091;79;20525;-72
2021/05/23 11:31:27;;;;;;;0.40;0.20;;;;;;;17.52;47.54;99400.41;2036388;76;21800;-72
2021/05/23 11:34:30;;;;;;;0.77;0.20;;;;;;;18.04;46.77;99392.56;2038489;79;20202;-71
2021/05/23 11:37:38;;;;;;;2.63;0.20;;;;;;;18.22;45.06;99397.19;2037160;79;20222;-71
2021/05/23 11:40:42;;;;;;;2.50;0.28;;;;;;;17.97;45.50;99399.81;2037247;79;20562;-71
2021/05/23 11:43:52;;;;;;;1.24;0.20;;;;;;;17.79;47.42;99395.19;2037406;79;20216;-71
2021/05/23 11:46:59;;;;;;;2.45;0.20;;;;;;;18.18;47.79;99392.97;2036245;77;22346;-72
2021/05/23 11:50:03;;;;;;;0.50;0.20;;;;;;;17.78;46.14;99402.22;2037367;79;20597;-71
2021/05/23 11:53:05;;;;;;;0.55;0.19;;;;;;;17.34;47.03;99414.13;2037383;79;20184;-71
2021/05/23 11:56:13;;;;;;;0.68;0.20;;;;;;;16.70;49.12;99404.72;2038234;79;20169;-71
2021/05/23 11:59:16;;;;;;;1.29;0.41;;;;;;;16.47;52.69;99403.56;2034090;79;20215;-71
2021/05/23 12:02:28;;;;;;;1.05;0.20;;;;;;;16.67;50.46;99400.41;2036184;76;22107;-72
2021/05/23 12:05:42;;;;;;;1.35;0.20;;;;;;;17.13;47.03;99388.56;2036308;79;20185;-71
2021/05/23 12:08:45;;;;;;;0.31;0.10;;;;;;;17.55;48.22;99377.56;2037735;79;20191;-71
2021/05/23 12:12:08;;;;;;;0.84;0.20;;;;;;;18.08;47.56;99383.66;2037694;79;20196;-72
2021/05/23 12:15:17;;;;;;;1.16;0.20;;;;;;;18.29;43.68;99382.03;2036230;79;20188;-71
2021/05/23 12:18:20;;;;;;;3.70;0.47;;;;;;;18.51;40.11;99375.13;2037189;76;28731;-71
2021/05/23 12:21:26;;;;;;;1.80;0.20;;;;;;;18.62;41.04;99361.56;2037201;79;20179;-70
2021/05/23 12:24:29;;;;;;;1.60;0.20;;;;;;;18.88;39.95;99364.09;2037539;79;20323;-70
2021/05/23 12:27:50;;;;;;;2.96;0.25;;;;;;;18.31;40.70;99369.69;2037147;79;20293;-70
2021/05/23 12:31:00;;;;;;;1.91;0.20;;;;;;;18.11;41.86;99380.94;2036486;79;20203;-72
2021/05/23 12:34:05;;;;;;;1.76;0.30;;;;;;;18.07;42.59;99392.47;2036642;76;20328;-70
2021/05/23 12:37:08;;;;;;;3.10;0.54;;;;;;;17.82;41.84;99368.81;2037392;79;20246;-70
2021/05/23 12:40:18;;;;;;;1.55;0.20;;;;;;;17.70;43.00;99377.97;2037892;79;20674;-70
2021/05/23 12:43:31;;;;;;;1.34;0.30;;;;;;;17.56;42.59;99406.41;2040362;79;20215;-70
2021/05/23 12:46:34;;;;;;;1.15;0.20;;;;;;;17.32;44.33;99399.31;2036603;77;22857;-72
2021/05/23 12:49:44;;;;;;;1.74;0.36;;;;;;;17.19;43.24;99397.06;2037538;79;20173;-71
2021/05/23 12:52:52;;;;;;;1.41;0.20;;;;;;;17.74;45.36;99384.81;2037047;79;20177;-70
2021/05/23 12:56:06;;;;;;;0.47;0.16;;;;;;;18.31;44.20;99385.47;2037073;79;20558;-70
2021/05/23 12:59:15;;;;;;;1.52;0.20;;;;;;;18.52;43.13;99368.94;2037499;79;20165;-70
2021/05/23 13:02:17;;;;;;;2.97;0.20;;;;;;;18.82;41.14;99366.94;2036119;76;28183;-70
2021/05/23 13:05:20;;;;;;;1.61;0.20;;;;;;;19.04;42.72;99364.34;2037007;79;20169;-71
2021/05/23 13:08:29;;;;;;;0.95;0.30;;;;;;;18.92;40.83;99367.47;2037212;79;20711;-71
2021/05/23 13:11:32;;;;;;;2.49;0.30;;;;;;;18.83;41.68;99371.28;2037084;79;20200;-70
2021/05/23 13:14:35;;;;;;;0.71;0.49;;;;;;;18.56;39.01;99382.81;2037977;79;20756;-70
2021/05/23 13:17:42;;;;;;;2.22;0.21;;;;;;;18.58;38.81;99379.22;2037418;77;27368;-70
2021/05/23 13:20:44;;;;;;;1.39;0.26;;;;;;;18.70;38.50;99372.69;2038471;79;20536;-72
2021/05/23 13:23:55;;;;;;;1.25;0.30;;;;;;;18.34;38.32;99372.25;2037674;79;20195;-71
2021/05/23 13:27:01;;;;;;;0.85;0.24;;;;;;;18.05;39.44;99376.75;2038454;79;21155;-70
2021/05/23 13:30:05;;;;;;;1.34;0.29;;;;;;;17.71;39.37;99369.16;2037900;79;20214;-71
2021/05/23 13:33:08;;;;;;;1.94;0.17;;;;;;;17.58;41.15;99374.84;2038111;79;20678;-71
2021/05/23 13:36:13;;;;;;;1.70;0.30;;;;;;;17.90;41.28;99356.28;2038343;79;20645;-71
2021/05/23 13:39:16;;;;;;;0.91;0.20;;;;;;;18.14;41.04;99351.94;2037958;79;20200;-70
2021/05/23 13:42:19;;;;;;;1.31;0.22;;;;;;;18.45;39.68;99345.53;2038268;79;20169;-71
2021/05/23 13:45:22;;;;;;;0.28;0.20;;;;;;;18.63;39.32;99343.13;2037252;79;21772;-71
2021/05/23 13:48:25;;;;;;;0.65;0.20;;;;;;;18.96;42.00;99319.03;2038753;79;20277;-71
2021/05/23 13:51:28;;;;;;;1.92;0.30;;;;;;;19.05;39.33;99328.38;2038087;79;20186;-71
2021/05/23 13:54:30;;;;;;;1.19;0.22;;;;;;;19.17;39.33;99323.44;2037807;79;20198;-71
2021/05/23 13:57:33;;;;;;;0.88;0.20;;;;;;;19.04;39.72;99327.50;2037521;79;20823;-70
2021/05/23 14:00:37;;;;;;;0.98;0.43;;;;;;;19.40;39.51;99322.53;2036274;76;78589;-71
2021/05/23 14:03:40;;;;;;;2.19;0.30;;;;;;;19.63;38.49;99312.84;2038408;79;20185;-70
2021/05/23 14:06:44;;;;;;;1.45;0.29;;;;;;;19.72;37.16;99304.53;2038132;79;20948;-70
2021/05/23 14:09:47;;;;;;;0.70;0.21;;;;;;;19.21;36.85;99325.06;2037821;79;20224;-71
2021/05/23 14:12:49;;;;;;;0.45;0.19;;;;;;;19.01;37.10;99322.34;2037951;79;20210;-70
2021/05/23 14:15:52;;;;;;;2.63;0.29;;;;;;;18.70;36.97;99307.78;2036423;76;32026;-71
2021/05/23 14:18:54;;;;;;;1.51;0.20;;;;;;;18.46;38.36;99313.06;2038585;79;20570;-70
2021/05/23 14:21:57;;;;;;;1.10;0.30;;;;;;;18.51;38.78;99311.16;2037692;79;20157;-71
2021/05/23 14:25:14;;;;;;;0.75;0.20;;;;;;;18.39;38.76;99310.69;2038267;79;20292;-71
2021/05/23 14:28:17;;;;;;;0.94;0.20;;;;;;;18.25;38.99;99306.84;2038307;79;20187;-70
2021/05/23 14:31:21;;;;;;;2.24;0.28;;;;;;;18.30;39.43;99311.00;2036136;76;24026;-72